createdAt,value
2023-10-29T00:02:21.677Z,99813.31
2023-10-29T00:05:25.044Z,99813.09
2023-10-29T00:08:27.397Z,99823.88
2023-10-29T00:11:30.268Z,99836.03
2023-10-29T00:14:33.249Z,99843.91
2023-10-29T00:17:35.840Z,99846.34
2023-10-29T00:20:38.372Z,99841.69
2023-10-29T00:23:40.999Z,99841.72
2023-10-29T00:26:43.465Z,99831.09
2023-10-29T00:29:48.067Z,99829.16
2023-10-29T00:32:50.438Z,99828.06
2023-10-29T00:35:55.115Z,99835.75
2023-10-29T00:38:57.497Z,99833.44
2023-10-29T00:42:00.189Z,99832.72
2023-10-29T00:45:02.556Z,99832.72
2023-10-29T00:48:05.748Z,99832.56
2023-10-29T00:51:08.912Z,99824.19
2023-10-29T00:54:11.652Z,99827.06
2023-10-29T00:57:14.138Z,99819.88
2023-10-29T01:00:19.528Z,99822.03
2023-10-29T01:03:23.067Z,99822.91
2023-10-29T01:06:27.458Z,99817.78
2023-10-29T01:09:31.502Z,99813.00
2023-10-29T01:12:34.381Z,99813.41
2023-10-29T01:15:36.818Z,99816.72
2023-10-29T01:18:39.420Z,99822.72
2023-10-29T01:21:41.954Z,99824.56
2023-10-29T01:24:44.722Z,99830.88
2023-10-29T01:27:47.065Z,99837.44
2023-10-29T01:30:50.018Z,99828.81
2023-10-29T01:33:52.266Z,99824.53
2023-10-29T01:36:55.053Z,99830.38
2023-10-29T01:39:58.289Z,99831.66
2023-10-29T01:43:00.854Z,99834.81
2023-10-29T01:46:03.378Z,99821.88
2023-10-29T01:49:10.259Z,99825.63
2023-10-29T01:52:12.571Z,99834.97
2023-10-29T01:55:15.188Z,99838.09
2023-10-29T01:58:17.541Z,99827.22
2023-10-29T02:01:20.224Z,99847.44
2023-10-29T02:04:27.595Z,99837.81
2023-10-29T02:07:30.006Z,99839.94
2023-10-29T02:10:32.685Z,99841.59
2023-10-29T02:13:34.914Z,99850.78
2023-10-29T02:16:37.558Z,99846.72
2023-10-29T02:19:39.809Z,99850.69
2023-10-29T02:22:42.418Z,99852.78
2023-10-29T02:25:44.740Z,99852.59
2023-10-29T02:28:47.295Z,99851.66
2023-10-29T02:31:49.577Z,99849.31
2023-10-29T02:34:52.170Z,99856.13
2023-10-29T02:37:54.449Z,99858.66
2023-10-29T02:40:57.033Z,99862.72
2023-10-29T02:43:59.698Z,99857.78
2023-10-29T02:47:02.389Z,99860.19
2023-10-29T02:50:05.238Z,99860.81
2023-10-29T02:53:07.761Z,99857.34
2023-10-29T02:56:10.152Z,99858.59
2023-10-29T02:59:12.801Z,99845.09
2023-10-29T03:02:15.211Z,99845.84
2023-10-29T03:05:18.978Z,99847.53
2023-10-29T03:08:22.698Z,99849.22
2023-10-29T03:11:25.431Z,99862.72
2023-10-29T03:14:27.804Z,99861.38
2023-10-29T03:17:30.407Z,99865.03
2023-10-29T03:20:32.851Z,99853.31
2023-10-29T03:23:35.542Z,99851.84
2023-10-29T03:26:38.180Z,99860.53
2023-10-29T03:29:40.889Z,99866.81
2023-10-29T03:32:43.238Z,99866.94
2023-10-29T03:35:46.315Z,99866.19
2023-10-29T03:38:48.691Z,99864.09
2023-10-29T03:41:51.473Z,99862.53
2023-10-29T03:44:53.711Z,99863.56
2023-10-29T03:47:56.486Z,99860.44
2023-10-29T03:51:02.411Z,99866.84
2023-10-29T03:54:05.345Z,99849.44
2023-10-29T03:57:08.591Z,99856.66
2023-10-29T04:00:12.022Z,99856.66
2023-10-29T04:03:14.327Z,99849.78
2023-10-29T04:06:17.134Z,99845.69
2023-10-29T04:09:19.714Z,99848.94
2023-10-29T04:12:22.550Z,99847.34
2023-10-29T04:15:24.797Z,99846.09
2023-10-29T04:18:32.603Z,99837.72
2023-10-29T04:21:35.123Z,99843.78
2023-10-29T04:24:37.748Z,99848.94
2023-10-29T04:27:39.992Z,99846.94
2023-10-29T04:30:42.828Z,99847.53
2023-10-29T04:33:46.499Z,99851.41
2023-10-29T04:36:52.756Z,99847.13
2023-10-29T04:39:55.128Z,99849.94
2023-10-29T04:43:00.049Z,99846.59
2023-10-29T04:46:02.291Z,99848.56
2023-10-29T04:49:05.029Z,99848.47
2023-10-29T04:52:07.443Z,99854.75
2023-10-29T04:55:10.178Z,99851.94
2023-10-29T04:58:12.393Z,99855.16
2023-10-29T05:01:19.079Z,99853.72
2023-10-29T05:04:21.455Z,99862.41
2023-10-29T05:07:24.165Z,99856.22
2023-10-29T05:10:29.475Z,99848.03
2023-10-29T05:13:31.976Z,99854.13
2023-10-29T05:16:34.333Z,99847.31
2023-10-29T05:19:36.898Z,99849.31
2023-10-29T05:22:39.170Z,99853.16
2023-10-29T05:25:42.503Z,99856.66
2023-10-29T05:28:44.762Z,99864.50
2023-10-29T05:31:47.308Z,99865.13
2023-10-29T05:34:50.126Z,99864.47
2023-10-29T05:37:52.890Z,99866.31
2023-10-29T05:40:55.217Z,99878.19
2023-10-29T05:43:57.751Z,99874.31
2023-10-29T05:47:00.237Z,99882.41
2023-10-29T05:50:05.317Z,99889.94
2023-10-29T05:53:07.949Z,99887.72
2023-10-29T05:56:10.504Z,99891.94
2023-10-29T05:59:14.238Z,99884.41
2023-10-29T06:02:17.311Z,99888.69
2023-10-29T06:05:20.154Z,99901.34
2023-10-29T06:08:23.111Z,99894.84
2023-10-29T06:11:25.638Z,99898.66
2023-10-29T06:14:27.946Z,99897.66
2023-10-29T06:17:31.024Z,99897.31
2023-10-29T06:20:34.170Z,99907.41
2023-10-29T06:23:38.465Z,99919.16
2023-10-29T06:26:42.086Z,99913.91
2023-10-29T06:29:44.828Z,99918.72
2023-10-29T06:32:47.510Z,99913.97
2023-10-29T06:35:50.132Z,99923.75
2023-10-29T06:38:53.119Z,99927.28
2023-10-29T06:41:55.881Z,99932.37
2023-10-29T06:44:58.430Z,99929.16
2023-10-29T06:48:01.135Z,99921.22
2023-10-29T06:51:04.362Z,99929.94
2023-10-29T06:54:07.387Z,99940.44
2023-10-29T06:57:09.765Z,99944.91
2023-10-29T07:00:12.820Z,99950.47
2023-10-29T07:03:15.704Z,99953.03
2023-10-29T07:06:18.431Z,99952.88
2023-10-29T07:09:20.683Z,99956.00
2023-10-29T07:12:23.530Z,99961.03
2023-10-29T07:15:26.474Z,99943.97
2023-10-29T07:18:29.224Z,99948.97
2023-10-29T07:21:31.704Z,99953.13
2023-10-29T07:24:36.308Z,99956.88
2023-10-29T07:27:39.078Z,99952.91
2023-10-29T07:30:42.013Z,99950.72
2023-10-29T07:33:44.324Z,99952.12
2023-10-29T07:36:46.966Z,99954.87
2023-10-29T07:39:49.263Z,99952.47
2023-10-29T07:42:51.752Z,99937.00
2023-10-29T07:45:54.016Z,99939.78
2023-10-29T07:48:56.605Z,99939.44
2023-10-29T07:51:58.873Z,99945.88
2023-10-29T07:55:01.412Z,99944.88
2023-10-29T07:58:03.976Z,99944.91
2023-10-29T08:01:13.892Z,99948.22
2023-10-29T08:04:16.532Z,99945.00
2023-10-29T08:07:18.843Z,99941.44
2023-10-29T08:10:21.400Z,99938.53
2023-10-29T08:13:23.793Z,99952.22
2023-10-29T08:16:26.486Z,99952.47
2023-10-29T08:19:28.891Z,99950.22
2023-10-29T08:22:31.426Z,99947.91
2023-10-29T08:25:36.488Z,99959.00
2023-10-29T08:28:39.079Z,99954.78
2023-10-29T08:31:41.401Z,99963.72
2023-10-29T08:34:44.093Z,99954.13
2023-10-29T08:37:46.915Z,99955.06
2023-10-29T08:40:49.488Z,99955.03
2023-10-29T08:43:53.421Z,99952.59
2023-10-29T08:46:56.031Z,99949.09
2023-10-29T08:49:59.320Z,99945.63
2023-10-29T08:53:01.884Z,99942.84
2023-10-29T08:56:04.838Z,99941.41
2023-10-29T08:59:07.389Z,99948.03
2023-10-29T09:02:09.886Z,99943.06
2023-10-29T09:05:12.885Z,99943.44
2023-10-29T09:08:15.434Z,99958.03
2023-10-29T09:11:18.620Z,99951.78
2023-10-29T09:14:20.986Z,99955.53
2023-10-29T09:17:23.590Z,99954.00
2023-10-29T09:20:27.191Z,99953.03
2023-10-29T09:23:30.499Z,99944.81
2023-10-29T09:26:33.020Z,99935.78
2023-10-29T09:29:37.625Z,99939.97
2023-10-29T09:32:40.133Z,99935.78
2023-10-29T09:35:43.468Z,99936.72
2023-10-29T09:38:46.972Z,99930.41
2023-10-29T09:41:53.147Z,99930.13
2023-10-29T09:45:03.331Z,99920.62
2023-10-29T09:48:09.209Z,99924.50
2023-10-29T09:51:11.592Z,99916.09
2023-10-29T09:54:16.249Z,99923.03
2023-10-29T09:57:19.946Z,99915.13
2023-10-29T10:00:22.762Z,99921.34
2023-10-29T10:03:28.109Z,99915.19
2023-10-29T10:06:31.816Z,99913.25
2023-10-29T10:09:56.413Z,99909.37
2023-10-29T10:12:58.610Z,99912.19
2023-10-29T10:16:08.780Z,99908.09
2023-10-29T10:19:14.593Z,99909.06
2023-10-29T10:22:36.439Z,99903.03
2023-10-29T10:25:39.206Z,99905.66
2023-10-29T10:28:55.850Z,99902.22
2023-10-29T10:32:05.951Z,99893.75
2023-10-29T10:35:08.476Z,99883.72
2023-10-29T10:38:12.018Z,99878.41
2023-10-29T10:41:14.668Z,99875.50
2023-10-29T10:44:23.223Z,99872.41
2023-10-29T10:47:29.788Z,99868.44
2023-10-29T10:50:33.470Z,99864.13
2023-10-29T10:53:39.120Z,99861.16
2023-10-29T10:56:42.768Z,99870.28
2023-10-29T10:59:45.888Z,99859.38
2023-10-29T11:02:49.675Z,99862.69
2023-10-29T11:05:53.788Z,99860.03
2023-10-29T11:08:56.744Z,99867.34
2023-10-29T11:11:59.677Z,99864.84
2023-10-29T11:15:21.937Z,99847.87
2023-10-29T11:18:35.179Z,99848.87
2023-10-29T11:21:39.623Z,99849.97
2023-10-29T11:24:42.713Z,99853.78
2023-10-29T11:27:48.946Z,99847.44
2023-10-29T11:31:16.193Z,99846.53
2023-10-29T11:34:18.500Z,99849.19
2023-10-29T11:37:37.876Z,99847.22
2023-10-29T11:40:40.158Z,99848.37
2023-10-29T11:43:42.674Z,99843.19
2023-10-29T11:46:59.919Z,99834.75
2023-10-29T11:50:08.713Z,99839.72
2023-10-29T11:53:25.844Z,99831.59
2023-10-29T11:56:32.915Z,99830.63
2023-10-29T11:59:35.184Z,99823.47
2023-10-29T12:02:37.851Z,99831.09
2023-10-29T12:05:40.489Z,99813.00
2023-10-29T12:08:42.817Z,99822.00
2023-10-29T12:11:46.484Z,99819.97
2023-10-29T12:14:48.986Z,99818.81
2023-10-29T12:17:52.114Z,99822.97
2023-10-29T12:21:05.417Z,99814.34
2023-10-29T12:24:09.479Z,99830.41
2023-10-29T12:27:15.155Z,99822.47
2023-10-29T12:30:43.942Z,99804.34
2023-10-29T12:33:55.956Z,99812.97
2023-10-29T12:36:58.472Z,99808.00
2023-10-29T12:40:02.229Z,99812.16
2023-10-29T12:43:05.024Z,99807.16
2023-10-29T12:46:15.675Z,99800.16
2023-10-29T12:49:34.736Z,99799.66
2023-10-29T12:52:44.199Z,99798.94
2023-10-29T12:55:47.434Z,99794.63
2023-10-29T12:58:49.620Z,99796.00
2023-10-29T13:01:54.191Z,99794.34
2023-10-29T13:04:56.509Z,99803.16
2023-10-29T13:07:59.063Z,99788.47
2023-10-29T13:11:03.967Z,99792.03
2023-10-29T13:14:09.311Z,99793.84
2023-10-29T13:17:12.210Z,99787.41
2023-10-29T13:20:15.232Z,99783.47
2023-10-29T13:23:17.471Z,99779.69
2023-10-29T13:26:23.143Z,99791.97
2023-10-29T13:29:25.952Z,99793.97
2023-10-29T13:32:28.539Z,99791.78
2023-10-29T13:35:31.865Z,99782.09
2023-10-29T13:38:35.268Z,99780.97
2023-10-29T13:41:41.293Z,99786.66
2023-10-29T13:44:44.711Z,99784.34
2023-10-29T13:47:47.155Z,99784.66
2023-10-29T13:50:49.872Z,99784.12
2023-10-29T13:53:52.197Z,99784.47
2023-10-29T13:56:57.080Z,99776.84
2023-10-29T13:59:59.492Z,99783.72
2023-10-29T14:03:02.351Z,99783.88
2023-10-29T14:06:05.816Z,99787.87
2023-10-29T14:09:09.626Z,99793.19
2023-10-29T14:12:12.253Z,99796.03
2023-10-29T14:15:16.099Z,99797.41
2023-10-29T14:18:19.442Z,99796.38
2023-10-29T14:21:22.083Z,99795.22
2023-10-29T14:24:24.752Z,99805.84
2023-10-29T14:27:27.054Z,99791.75
2023-10-29T14:30:29.760Z,99798.22
2023-10-29T14:33:32.307Z,99799.72
2023-10-29T14:36:35.406Z,99802.03
2023-10-29T14:39:37.615Z,99793.88
2023-10-29T14:42:40.119Z,99797.19
2023-10-29T14:45:45.978Z,99799.03
2023-10-29T14:48:48.469Z,99803.37
2023-10-29T14:51:50.876Z,99802.19
2023-10-29T14:54:53.478Z,99806.16
2023-10-29T14:57:56.223Z,99800.19
2023-10-29T15:00:59.533Z,99799.34
2023-10-29T15:04:02.223Z,99797.16
2023-10-29T15:07:04.989Z,99798.47
2023-10-29T15:10:07.583Z,99803.94
2023-10-29T15:13:10.039Z,99797.75
2023-10-29T15:16:12.412Z,99791.75
2023-10-29T15:19:30.016Z,99781.38
2023-10-29T15:22:37.522Z,99786.63
2023-10-29T15:25:44.001Z,99787.00
2023-10-29T15:28:47.995Z,99791.53
2023-10-29T15:31:50.502Z,99791.94
2023-10-29T15:34:52.840Z,99792.25
2023-10-29T15:37:55.488Z,99791.31
2023-10-29T15:40:57.880Z,99789.19
2023-10-29T15:44:00.387Z,99790.63
2023-10-29T15:47:02.568Z,99797.88
2023-10-29T15:50:06.635Z,99801.53
2023-10-29T15:53:09.036Z,99795.19
2023-10-29T15:56:11.690Z,99796.16
2023-10-29T15:59:13.897Z,99797.78
2023-10-29T16:02:16.353Z,99809.53
2023-10-29T16:05:20.587Z,99808.19
2023-10-29T16:08:22.900Z,99817.78
2023-10-29T16:11:27.682Z,99814.34
2023-10-29T16:14:30.165Z,99814.22
2023-10-29T16:17:32.764Z,99815.94
2023-10-29T16:20:35.087Z,99813.97
2023-10-29T16:23:38.082Z,99816.34
2023-10-29T16:26:40.431Z,99816.75
2023-10-29T16:29:43.233Z,99810.53
2023-10-29T16:32:45.537Z,99816.91
2023-10-29T16:35:49.036Z,99819.84
2023-10-29T16:38:51.279Z,99821.38
2023-10-29T16:41:59.570Z,99824.03
2023-10-29T16:45:02.071Z,99828.84
2023-10-29T16:48:05.712Z,99827.75
2023-10-29T16:51:08.700Z,99828.13
2023-10-29T16:54:11.361Z,99828.28
2023-10-29T16:57:13.983Z,99827.72
2023-10-29T17:00:16.955Z,99825.22
2023-10-29T17:03:19.356Z,99831.34
2023-10-29T17:06:22.025Z,99833.69
2023-10-29T17:09:28.442Z,99844.66
2023-10-29T17:12:31.050Z,99839.53
2023-10-29T17:15:33.359Z,99836.34
2023-10-29T17:18:36.407Z,99833.03
2023-10-29T17:21:38.776Z,99848.75
2023-10-29T17:24:41.457Z,99846.53
2023-10-29T17:27:43.662Z,99848.63
2023-10-29T17:30:46.212Z,99851.94
2023-10-29T17:33:48.675Z,99857.22
2023-10-29T17:36:51.332Z,99857.50
2023-10-29T17:39:53.705Z,99853.84
2023-10-29T17:42:59.898Z,99848.72
2023-10-29T17:46:02.262Z,99849.50
2023-10-29T17:49:04.958Z,99841.69
2023-10-29T17:52:07.234Z,99848.50
2023-10-29T17:55:09.783Z,99844.62
2023-10-29T17:58:12.022Z,99846.00
2023-10-29T18:01:15.778Z,99850.44
2023-10-29T18:04:18.995Z,99841.56
2023-10-29T18:07:21.276Z,99844.47
2023-10-29T18:10:24.471Z,99846.59
2023-10-29T18:13:26.657Z,99848.00
2023-10-29T18:16:29.401Z,99850.06
2023-10-29T18:19:31.808Z,99853.28
2023-10-29T18:22:34.365Z,99856.63
2023-10-29T18:25:36.663Z,99854.97
2023-10-29T18:28:39.242Z,99856.91
2023-10-29T18:31:41.888Z,99856.63
2023-10-29T18:34:44.800Z,99854.97
2023-10-29T18:37:50.700Z,99848.16
2023-10-29T18:40:56.178Z,99849.56
2023-10-29T18:44:01.240Z,99847.34
2023-10-29T18:47:04.005Z,99849.97
2023-10-29T18:50:07.628Z,99859.16
2023-10-29T18:53:10.310Z,99856.37
2023-10-29T18:56:12.553Z,99850.00
2023-10-29T18:59:15.305Z,99856.94
2023-10-29T19:02:17.595Z,99855.44
2023-10-29T19:05:20.375Z,99859.84
2023-10-29T19:08:22.684Z,99854.72
2023-10-29T19:11:26.548Z,99852.22
2023-10-29T19:14:32.476Z,99855.84
2023-10-29T19:17:37.058Z,99853.44
2023-10-29T19:20:42.754Z,99866.41
2023-10-29T19:23:46.090Z,99859.00
2023-10-29T19:26:48.345Z,99862.91
2023-10-29T19:29:54.255Z,99858.84
2023-10-29T19:32:56.547Z,99851.91
2023-10-29T19:35:59.216Z,99864.00
2023-10-29T19:39:01.578Z,99861.63
2023-10-29T19:42:04.570Z,99860.38
2023-10-29T19:45:07.543Z,99860.47
2023-10-29T19:48:10.496Z,99857.84
2023-10-29T19:51:12.816Z,99860.75
2023-10-29T19:54:16.069Z,99862.72
2023-10-29T19:57:18.427Z,99858.13
2023-10-29T20:00:21.547Z,99869.38
2023-10-29T20:03:24.150Z,99865.75
2023-10-29T20:06:27.413Z,99867.00
2023-10-29T20:09:30.421Z,99863.81
2023-10-29T20:12:32.750Z,99852.44
2023-10-29T20:15:35.732Z,99854.38
2023-10-29T20:18:38.213Z,99850.47
2023-10-29T20:21:40.910Z,99849.06
2023-10-29T20:24:43.363Z,99850.06
2023-10-29T20:27:49.282Z,99851.81
2023-10-29T20:30:51.584Z,99847.69
2023-10-29T20:33:54.362Z,99839.88
2023-10-29T20:36:56.674Z,99847.47
2023-10-29T20:39:59.578Z,99850.09
2023-10-29T20:43:02.912Z,99850.63
2023-10-29T20:46:05.754Z,99855.31
2023-10-29T20:49:08.333Z,99851.84
2023-10-29T20:52:11.153Z,99845.88
2023-10-29T20:55:13.358Z,99848.53
2023-10-29T20:58:15.989Z,99845.28
2023-10-29T21:01:18.473Z,99848.34
2023-10-29T21:04:21.239Z,99851.88
2023-10-29T21:07:23.541Z,99858.69
2023-10-29T21:10:28.423Z,99851.88
2023-10-29T21:13:30.996Z,99855.94
2023-10-29T21:16:34.268Z,99856.13
2023-10-29T21:19:36.560Z,99859.41
2023-10-29T21:22:39.129Z,99859.19
2023-10-29T21:25:41.393Z,99862.59
2023-10-29T21:28:44.330Z,99863.81
2023-10-29T21:31:47.563Z,99870.00
2023-10-29T21:34:50.220Z,99874.78
2023-10-29T21:37:52.490Z,99872.41
2023-10-29T21:40:55.146Z,99870.13
2023-10-29T21:43:58.918Z,99869.44
2023-10-29T21:47:01.835Z,99870.63
2023-10-29T21:50:04.530Z,99875.47
2023-10-29T21:53:08.027Z,99877.25
2023-10-29T21:56:10.588Z,99886.59
2023-10-29T21:59:13.151Z,99889.22
2023-10-29T22:02:15.368Z,99888.88
2023-10-29T22:05:17.864Z,99880.03
2023-10-29T22:08:20.129Z,99879.00
2023-10-29T22:11:23.190Z,99872.53
2023-10-29T22:14:25.393Z,99877.09
2023-10-29T22:17:28.093Z,99876.63
2023-10-29T22:20:33.198Z,99872.09
2023-10-29T22:23:36.396Z,99871.22
2023-10-29T22:26:38.940Z,99864.06
2023-10-29T22:29:41.508Z,99860.84
2023-10-29T22:32:43.776Z,99856.06
2023-10-29T22:35:46.358Z,99855.22
2023-10-29T22:38:48.825Z,99855.09
2023-10-29T22:41:51.496Z,99852.56
2023-10-29T22:44:53.712Z,99847.91
2023-10-29T22:47:57.719Z,99866.94
2023-10-29T22:51:03.613Z,99865.63
2023-10-29T22:54:06.648Z,99868.25
2023-10-29T22:57:09.011Z,99867.41
2023-10-29T23:00:16.585Z,99868.72
2023-10-29T23:03:19.601Z,99867.91
2023-10-29T23:06:22.848Z,99867.91
2023-10-29T23:09:26.356Z,99867.06
2023-10-29T23:12:28.895Z,99871.84
2023-10-29T23:15:31.266Z,99864.19
2023-10-29T23:18:33.993Z,99869.22
2023-10-29T23:21:36.301Z,99871.97
2023-10-29T23:24:38.972Z,99868.00
2023-10-29T23:27:41.490Z,99862.63
2023-10-29T23:30:44.991Z,99866.34
2023-10-29T23:33:49.662Z,99859.16
2023-10-29T23:36:52.942Z,99856.31
2023-10-29T23:39:55.373Z,99860.00
2023-10-29T23:42:59.571Z,99864.44
2023-10-29T23:46:01.918Z,99863.81
2023-10-29T23:49:06.657Z,99868.97
2023-10-29T23:52:08.879Z,99871.84
2023-10-29T23:55:12.635Z,99874.09
2023-10-29T23:58:15.051Z,99867.91
